ADDS METAR Data INFO
IDs: Format: Raw Decoded Include TAF

Data at: 1143 UTC 17 Jul 2018

KLRJ 171135Z AUTO 36004KT 10SM CLR 18/17 A3010 RMK AO2
KLRJ 171115Z AUTO 02005KT 10SM FEW110 18/17 A3009 RMK AO2
KLRJ 171055Z AUTO 02005KT 10SM FEW110 18/17 A3008 RMK AO2
KLRJ 171035Z AUTO 01005KT 10SM FEW110 18/17 A3008 RMK AO2
KLRJ 171015Z AUTO 01004KT 10SM CLR 18/17 A3009 RMK AO2
KLRJ 170955Z AUTO 36004KT 10SM CLR 18/17 A3009 RMK AO2
KLRJ 170935Z AUTO 00000KT 10SM CLR 18/18 A3008 RMK AO2
KLRJ 170915Z AUTO 01004KT 10SM CLR 18/18 A3008 RMK AO2
KLRJ 170855Z AUTO 01005KT 10SM CLR 18/18 A3008 RMK AO2
KLRJ 170835Z AUTO 02004KT 10SM CLR 18/18 A3008 RMK AO2
KLRJ 170815Z AUTO 02004KT 10SM CLR 18/18 A3009 RMK AO2
KLRJ 170755Z AUTO 00000KT 10SM CLR 18/18 A3009 RMK AO2
KLRJ 170735Z AUTO 01004KT 10SM CLR 19/18 A3008 RMK AO2
KLRJ 170715Z AUTO 00000KT 10SM CLR 18/18 A3008 RMK AO2
KLRJ 170655Z AUTO 01004KT 10SM CLR 19/18 A3008 RMK AO2
KLRJ 170635Z AUTO 02003KT 10SM CLR 19/18 A3008 RMK AO2
KLRJ 170615Z AUTO 00000KT 10SM CLR 19/18 A3010 RMK AO2
KLRJ 170555Z AUTO 00000KT 10SM CLR 19/18 A3010 RMK AO2
KLRJ 170535Z AUTO 00000KT 10SM CLR 19/18 A3010 RMK AO2
KLRJ 170515Z AUTO 00000KT 10SM CLR 19/19 A3009 RMK AO2
KLRJ 170455Z AUTO 00000KT 10SM CLR 19/19 A3009 RMK AO2
KLRJ 170435Z AUTO 00000KT 10SM CLR 20/19 A3009 RMK AO2
KLRJ 170415Z AUTO 00000KT 10SM CLR 20/19 A3009 RMK AO2
KLRJ 170355Z AUTO 00000KT 10SM CLR 20/19 A3008 RMK AO2
KLRJ 170335Z AUTO 00000KT 10SM CLR 21/19 A3008 RMK AO2
KLRJ 170315Z AUTO 00000KT 10SM CLR 21/19 A3007 RMK AO2
KLRJ 170255Z AUTO 00000KT 10SM CLR 21/19 A3007 RMK AO2
KLRJ 170235Z AUTO 00000KT 10SM CLR 22/19 A3006 RMK AO2
KLRJ 170215Z AUTO 00000KT 10SM CLR 22/19 A3006 RMK AO2
KLRJ 170155Z AUTO 00000KT 10SM CLR 22/19 A3005 RMK AO2
KLRJ 170135Z AUTO 00000KT 10SM CLR 24/19 A3005 RMK AO2
KLRJ 170115Z AUTO 13003KT 10SM CLR 26/16 A3005 RMK AO2
KLRJ 170055Z AUTO 13004KT 10SM CLR 26/15 A3004 RMK AO2
KLRJ 170035Z AUTO 15004KT 10SM CLR 27/15 A3004 RMK AO2
KLRJ 170015Z AUTO 13005KT 10SM CLR 27/14 A3004 RMK AO2
KLRJ 162355Z AUTO 13003KT 10SM CLR 27/15 A3004 RMK AO2
KLRJ 162335Z AUTO 00000KT 10SM CLR 28/15 A3005 RMK AO2
KLRJ 162315Z AUTO 14005KT 10SM CLR 28/15 A3005 RMK AO2
KLRJ 162255Z AUTO 00000KT 10SM CLR 28/15 A3006 RMK AO2
KLRJ 162235Z AUTO 00000KT 10SM CLR 28/14 A3006 RMK AO2
KLRJ 162215Z AUTO 23003KT 10SM CLR 28/15 A3007 RMK AO2
KLRJ 162155Z AUTO 00000KT 10SM CLR 28/13 A3007 RMK AO2
KLRJ 162135Z AUTO VRB03KT 10SM CLR 28/14 A3007 RMK AO2
KLRJ 162115Z AUTO 00000KT 10SM CLR 28/14 A3008 RMK AO2
KLRJ 162055Z AUTO 00000KT 10SM CLR 28/14 A3008 RMK AO2
KLRJ 162035Z AUTO 00000KT 10SM CLR 28/13 A3009 RMK AO2
KLRJ 162015Z AUTO 16005KT 10SM CLR 27/15 A3008 RMK AO2
KLRJ 161955Z AUTO 14005KT 10SM CLR 27/14 A3009 RMK AO2
KLRJ 161935Z AUTO 00000KT 10SM CLR 27/14 A3009 RMK AO2
KLRJ 161915Z AUTO 13004KT 10SM CLR 27/14 A3010 RMK AO2
KLRJ 161855Z AUTO 14005KT 10SM CLR 27/14 A3010 RMK AO2
KLRJ 161835Z AUTO 12006KT 10SM CLR 27/15 A3010 RMK AO2
KLRJ 161815Z AUTO 05006KT 10SM CLR 27/14 A3011 RMK AO2
KLRJ 161755Z AUTO VRB04KT 10SM CLR 26/15 A3011 RMK AO2
KLRJ 161735Z AUTO 00000KT 10SM CLR 26/14 A3011 RMK AO2
KLRJ 161715Z AUTO 09007KT 10SM CLR 26/14 A3011 RMK AO2
KLRJ 161655Z AUTO 06008KT 10SM CLR 25/14 A3011 RMK AO2
KLRJ 161635Z AUTO VRB05KT 10SM CLR 25/15 A3012 RMK AO2
KLRJ 161615Z AUTO VRB05G10KT 10SM CLR 25/15 A3011 RMK AO2
KLRJ 161555Z AUTO 13005KT 10SM CLR 24/15 A3012 RMK AO2
KLRJ 161535Z AUTO VRB04G10KT 10SM CLR 24/15 A3012 RMK AO2
KLRJ 161515Z AUTO VRB04KT 10SM CLR 24/15 A3012 RMK AO2
KLRJ 161455Z AUTO 09004KT 10SM CLR 23/15 A3012 RMK AO2
KLRJ 161435Z AUTO 02005KT 10SM CLR 22/16 A3012 RMK AO2
KLRJ 161415Z AUTO 03006KT 10SM CLR 22/16 A3012 RMK AO2
KLRJ 161355Z AUTO 03005KT 10SM CLR 21/16 A3012 RMK AO2
KLRJ 161335Z AUTO 02005KT 10SM CLR 20/16 A3012 RMK AO2
KLRJ 161315Z AUTO 02005KT 10SM CLR 19/16 A3012 RMK AO2
KLRJ 161255Z AUTO 01006KT 10SM CLR 18/16 A3012 RMK AO2
KLRJ 161235Z AUTO 36005KT 10SM CLR 18/16 A3011 RMK AO2
KLRJ 161215Z AUTO 01006KT 10SM CLR 17/16 A3011 RMK AO2
KLRJ 161155Z AUTO 36004KT 10SM CLR 17/16 A3010 RMK AO2
KLRJ 161135Z AUTO 34003KT 10SM CLR 16/16 A3010 RMK AO2
KLRJ 161115Z AUTO 35003KT 10SM CLR 16/16 A3009 RMK AO2
KLRJ 161055Z AUTO 34004KT 10SM CLR 16/16 A3009 RMK AO2
KLRJ 161035Z AUTO 03004KT 10SM CLR 17/16 A3008 RMK AO2
KLRJ 161015Z AUTO 01003KT 10SM FEW075 17/16 A3008 RMK AO2
KLRJ 160955Z AUTO 01004KT 10SM CLR 17/16 A3008 RMK AO2
KLRJ 160935Z AUTO 36005KT 10SM FEW080 18/16 A3008 RMK AO2
KLRJ 160915Z AUTO 01004KT 10SM SCT080 18/16 A3008 RMK AO2
KLRJ 160855Z AUTO 34004KT 10SM BKN085 18/16 A3008 RMK AO2
KLRJ 160835Z AUTO 00000KT 10SM OVC085 18/17 A3008 RMK AO2
KLRJ 160815Z AUTO 00000KT 10SM SCT085 18/17 A3008 RMK AO2
KLRJ 160755Z AUTO 33004KT 10SM OVC090 18/17 A3008 RMK AO2
KLRJ 160735Z AUTO 32004KT 10SM BKN090 19/18 A3008 RMK AO2
KLRJ 160715Z AUTO 00000KT 10SM BKN090 19/18 A3007 RMK AO2
KLRJ 160655Z AUTO 00000KT 10SM OVC090 19/18 A3007 RMK AO2
KLRJ 160635Z AUTO 36004KT 10SM SCT090 BKN110 20/18 A3007 RMK AO2
KLRJ 160615Z AUTO 36005KT 10SM CLR 20/18 A3007 RMK AO2
KLRJ 160555Z AUTO 34004KT 10SM CLR 21/18 A3008 RMK AO2
KLRJ 160535Z AUTO 36005KT 10SM CLR 21/19 A3008 RMK AO2
KLRJ 160515Z AUTO 35004KT 10SM CLR 21/19 A3008 RMK AO2
KLRJ 160455Z AUTO 34007KT 10SM CLR 21/19 A3008 RMK AO2
KLRJ 160435Z AUTO 32006KT 10SM CLR 22/20 A3007 RMK AO2
KLRJ 160415Z AUTO VRB03KT 10SM CLR 22/20 A3005 RMK AO2
KLRJ 160355Z AUTO 34005KT 10SM CLR 22/20 A3005 RMK AO2
KLRJ 160335Z AUTO 35005KT 10SM CLR 22/20 A3005 RMK AO2
KLRJ 160315Z AUTO 01005KT 10SM CLR 22/20 A3004 RMK AO2
KLRJ 160255Z AUTO 02005KT 10SM CLR 23/20 A3003 RMK AO2
KLRJ 160235Z AUTO 36007KT 10SM CLR 23/20 A3003 RMK AO2
KLRJ 160215Z AUTO 02008KT 10SM CLR 23/20 A3003 RMK AO2
KLRJ 160155Z AUTO 01008KT 10SM CLR 23/20 A3003 RMK AO2
KLRJ 160135Z AUTO 01009KT 10SM CLR 24/21 A3002 RMK AO2
KLRJ 160115Z AUTO 02010G17KT 10SM CLR 24/21 A3002 RMK AO2
KLRJ 160055Z AUTO 01011G16KT 10SM CLR 24/21 A3001 RMK AO2
KLRJ 160035Z AUTO 01013KT 10SM CLR 25/21 A3001 RMK AO2
KLRJ 160015Z AUTO 36016KT 10SM CLR 26/22 A3000 RMK AO2
KLRJ 152355Z AUTO 34009G16KT 10SM CLR 29/21 A2999 RMK AO2